WMKPWMSA

Guest
Details From WMKP - Penang Intl
To WMSA - Kuala Lumpur S Abdul Aziz Shah
Flight Number -
Tags generated
Created
Modified
Stats Distance 152 nm / 281 km
Max Altitude 15,700 ft / 4,785 m
Waypoints 3
Social Downloads 1
Likes 0
Share VATSIM

Download

Looking for another format? Having issues loading an existing format? Contact us
Advertisement - Login to hide

Notes

Basic altitude profile: - Ascent Rate: 2500ft/min - Ascent Speed: 250kts - Cruise Altitude: 35000ft - Cruise Speed: 420kts - Descent Rate: 1500ft/min - Descent Speed: 250kts Options: - Use NATs: yes - Use PACOTS: yes - Use low airways: yes - Use high airways: no

Route

WMKP TEPUS WMSA

ID Type Via Altitude Latitude Longitude Leg Dist Tot Dist Heading (true) Name
O WMKP APT - 0 ft / 0 m 5.29714˚ 100.27686˚ - 0 nm - Penang Intl
TEPUS FIX - 15,700 ft / 4,785 m 4.17028˚ 100.75917˚ 73 nm 73 nm 157° / 157° -
O WMSA APT - 0 ft / 0 m 3.13058˚ 101.54933˚ 78 nm 151 nm 143° / 143° Kuala Lumpur S Abdul Aziz Shah

Altitude Profile

Advertisement - Login to hide

WMKP

Details ICAO WMKP (PEN)
Name Penang Intl
Region Malaysia (Peninsular Malaysia)
Timezone Asia/Kuala_Lumpur (UTC+8.0)
Stats Elevation 11 ft / 3 m (AMSL)
Location 5.297141° 100.276865°
Runways 1
Magnetic Variation 0.206° W

METAR

WMKP 160330Z 06005KT 350V120 9000 FEW020 BKN300 32/21 Q1012 NOSIG

Decode

TAF

Not found

Departure Runways

ID Width Length Bearing (true) Bearing (mag) Surface Threshold Offset Overrun Length
04 150 ft / 46 m 11,042 ft / 3,366 m 42.02° 42.23° Asphalt 0 ft / 0 m 205 ft / 62 m
22 150 ft / 46 m 11,042 ft / 3,366 m 222.02° 222.23° Asphalt 0 ft / 0 m 205 ft / 62 m

WMSA

Details ICAO WMSA (SZB)
Name Kuala Lumpur S Abdul Aziz Shah
Region Malaysia (Peninsular Malaysia)
Timezone Asia/Kuala_Lumpur (UTC+8.0)
Stats Elevation 90 ft / 27 m (AMSL)
Location 3.130583° 101.549334°
Runways 1
Magnetic Variation 0.027° W

METAR

WMSA 160300Z VRB01KT 9999 FEW019 BKN280 31/24 Q1012

Decode

TAF

TAF AMD WMSA 152145Z 1522/1618 VRB02KT 9999 FEW017CB SCT140 BKN280 TEMPO 1522/1602 4000 TSRA FEW015CB SCT018 PROB30 TEMPO 1607/1611 3000 TSRA FEW015CB SCT018

Decode

Destination Runways

ID Width Length Bearing (true) Bearing (mag) Surface Threshold Offset Overrun Length
15 148 ft / 45 m 12,450 ft / 3,795 m 149.84° 149.87° Asphalt 0 ft / 0 m 200 ft / 61 m
33 148 ft / 45 m 12,450 ft / 3,795 m 329.84° 329.87° Asphalt 0 ft / 0 m 200 ft / 61 m

Approach Navaids

Runway Type Ident Frequency Range Bearing (true) Bearing (mag) Slope Elevation
15 Localiser ISB 110.30 MHz 18 nm / 33 km 149.21° 149.23° - 80 ft / 24 m (AMSL)
15 Glidescope ISB 110.30 MHz 10 nm / 19 km 149.84° 149.87° 3.00° 90 ft / 27 m (AMSL)
15 DME ISB 110.30 MHz 18 nm / 33 km - - - 90 ft / 27 m (AMSL)
33 Localiser IKL 109.90 MHz 18 nm / 33 km 328.62° 328.65° - 69 ft / 21 m (AMSL)
33 Glidescope IKL 109.90 MHz 10 nm / 19 km 329.84° 329.87° 3.00° 69 ft / 21 m (AMSL)
33 DME IKL 109.90 MHz 18 nm / 33 km - - - 69 ft / 21 m (AMSL)

Popular Alternatives